Time;durP1;ratioP1;P1;durP2;ratioP2;P2;SDS_P1;SDS_P2;PMS_P1;PMS_P2;Temp;Humidity;BMP_temperature;BMP_pressure;BME280_temperature;BME280_humidity;BME280_pressure;Samples;Min_cycle;Max_cycle;Signal;HPM_P1;HPM_P2
2022/01/24 00:00:14;;;;;;;26.02;12.98;;;8.00;99.90;;;;;;5063392;28;20021;-69
2022/01/24 00:02:42;;;;;;;23.60;12.68;;;7.90;99.90;;;;;;5068398;28;20522;-68
2022/01/24 00:05:08;;;;;;;22.25;11.20;;;8.00;99.90;;;;;;5061863;28;20029;-69
2022/01/24 00:07:35;;;;;;;22.98;11.45;;;7.90;99.90;;;;;;5052255;28;20063;-70
2022/01/24 00:10:04;;;;;;;24.77;12.23;;;8.00;99.90;;;;;;5052506;28;20028;-71
2022/01/24 00:17:40;;;;;;;26.77;11.90;;;8.10;99.90;;;;;;5052519;28;20025;-71
2022/01/24 00:28:22;;;;;;;28.33;12.30;;;8.20;99.90;;;;;;5054208;28;20104;-70
2022/01/24 00:30:48;;;;;;;25.17;12.38;;;8.10;99.90;;;;;;5063941;28;20063;-71
2022/01/24 00:33:15;;;;;;;28.70;13.15;;;8.10;99.90;;;;;;5068466;28;20039;-69
2022/01/24 00:35:41;;;;;;;24.63;13.50;;;8.10;99.90;;;;;;5067048;28;20074;-72
2022/01/24 00:38:07;;;;;;;25.23;11.55;;;8.20;99.90;;;;;;5068899;28;20037;-71
2022/01/24 00:40:37;;;;;;;25.63;11.57;;;8.20;99.90;;;;;;5066014;28;20071;-71
2022/01/24 00:43:10;;;;;;;23.33;10.85;;;8.10;99.90;;;;;;5057334;28;20021;-71
2022/01/24 00:55:58;;;;;;;26.35;12.48;;;8.20;99.90;;;;;;5063108;28;20036;-70
2022/01/24 00:58:23;;;;;;;24.83;12.25;;;8.10;99.90;;;;;;5054195;28;20104;-70
2022/01/24 01:00:49;;;;;;;26.02;12.38;;;8.20;99.90;;;;;;5066400;28;20543;-69
2022/01/24 01:03:16;;;;;;;24.50;11.48;;;8.20;99.90;;;;;;5054256;28;20030;-69
2022/01/24 01:06:24;;;;;;;24.83;12.13;;;8.20;99.90;;;;;;5042150;28;20436;-70
2022/01/24 01:19:30;;;;;;;21.60;11.40;;;8.20;99.90;;;;;;5061414;28;20032;-70
2022/01/24 01:21:57;;;;;;;26.75;13.10;;;8.20;99.90;;;;;;5062989;28;20028;-69
2022/01/24 01:24:24;;;;;;;25.33;12.38;;;8.20;99.90;;;;;;5054638;28;20052;-69
2022/01/24 01:27:05;;;;;;;25.02;11.55;;;8.30;99.90;;;;;;5053890;28;20016;-69
2022/01/24 01:29:45;;;;;;;25.02;12.45;;;8.30;99.90;;;;;;5061509;28;20048;-69
2022/01/24 01:32:58;;;;;;;24.30;11.98;;;8.10;99.90;;;;;;5038266;28;20122;-69
2022/01/24 01:35:31;;;;;;;25.17;12.77;;;8.10;99.90;;;;;;5046401;28;20036;-69
2022/01/24 01:57:14;;;;;;;23.58;11.30;;;8.00;99.90;;;;;;4999841;28;20129;-69
2022/01/24 01:59:40;;;;;;;26.85;12.27;;;8.00;99.90;;;;;;5054717;28;20375;-69
2022/01/24 02:02:06;;;;;;;25.17;12.00;;;8.00;99.90;;;;;;5054948;28;20029;-68
2022/01/24 02:04:31;;;;;;;25.13;12.30;;;7.90;99.90;;;;;;5055349;28;20051;-68
2022/01/24 02:06:57;;;;;;;23.60;11.40;;;7.90;99.90;;;;;;5054887;28;20087;-69
2022/01/24 02:09:30;;;;;;;27.50;12.07;;;7.90;99.90;;;;;;5054767;28;20029;-70
2022/01/24 02:11:55;;;;;;;23.70;10.45;;;7.90;99.90;;;;;;5053798;28;20068;-71
2022/01/24 02:14:24;;;;;;;24.00;12.02;;;8.00;99.90;;;;;;5066025;28;20500;-70
2022/01/24 02:16:59;;;;;;;25.33;12.07;;;8.00;99.90;;;;;;5066476;28;20175;-71
2022/01/24 02:19:34;;;;;;;26.23;12.98;;;7.90;99.90;;;;;;5054875;28;20028;-69
2022/01/24 02:24:31;;;;;;;24.27;9.82;;;7.90;99.90;;;;;;5074518;28;20112;-70
2022/01/24 02:26:58;;;;;;;25.48;12.05;;;7.90;99.90;;;;;;5074418;28;20531;-70
2022/01/24 02:29:43;;;;;;;26.02;11.98;;;7.70;99.90;;;;;;5074476;28;20442;-71
2022/01/24 02:32:11;;;;;;;22.92;10.20;;;7.70;99.90;;;;;;5074377;28;20029;-70
2022/01/24 02:34:40;;;;;;;25.52;10.70;;;7.70;99.90;;;;;;5074443;28;20488;-70
2022/01/24 02:37:09;;;;;;;27.08;12.18;;;7.80;99.90;;;;;;5071653;28;20042;-69
2022/01/24 02:39:54;;;;;;;23.85;11.20;;;7.70;99.90;;;;;;5064131;28;20056;-69
2022/01/24 02:53:05;;;;;;;22.63;10.65;;;7.80;99.90;;;;;;5058939;28;20028;-72
2022/01/24 02:55:31;;;;;;;27.35;12.65;;;7.80;99.90;;;;;;5064433;28;20036;-70
2022/01/24 02:57:56;;;;;;;26.17;11.70;;;7.80;99.90;;;;;;5058246;28;20404;-71
2022/01/24 03:00:22;;;;;;;23.25;11.20;;;7.70;99.90;;;;;;5069732;28;20466;-69
2022/01/24 03:02:48;;;;;;;25.63;12.80;;;7.80;99.90;;;;;;5056879;28;20046;-72
2022/01/24 03:05:13;;;;;;;26.90;11.88;;;7.80;99.90;;;;;;5066536;28;20539;-71
2022/01/24 03:07:39;;;;;;;26.23;12.20;;;7.90;99.90;;;;;;5063376;28;20025;-70
2022/01/24 03:10:24;;;;;;;24.52;11.90;;;7.90;99.90;;;;;;5067275;28;20051;-72
2022/01/24 03:12:59;;;;;;;25.55;11.20;;;7.90;99.90;;;;;;5056984;28;20025;-71
2022/01/24 03:15:25;;;;;;;24.67;10.95;;;7.90;99.90;;;;;;5061601;28;20036;-70
2022/01/24 03:17:51;;;;;;;24.17;11.40;;;7.80;99.90;;;;;;5061680;28;20047;-70
2022/01/24 03:20:16;;;;;;;27.00;11.93;;;7.80;99.90;;;;;;5068651;28;20115;-70
2022/01/24 03:22:42;;;;;;;23.73;11.30;;;7.80;99.90;;;;;;5056707;28;20037;-71
2022/01/24 03:25:08;;;;;;;24.17;11.57;;;7.90;99.90;;;;;;5067456;28;20462;-71
2022/01/24 03:27:33;;;;;;;23.65;11.18;;;7.90;99.90;;;;;;5062208;28;20444;-71
2022/01/24 03:29:59;;;;;;;23.30;11.40;;;7.90;99.90;;;;;;5068291;28;20522;-70
2022/01/24 03:32:25;;;;;;;23.63;11.05;;;8.00;99.90;;;;;;5057595;28;20032;-72
2022/01/24 03:34:50;;;;;;;23.90;11.43;;;8.00;99.90;;;;;;5056458;28;20099;-71
2022/01/24 03:37:16;;;;;;;25.27;10.73;;;8.10;99.90;;;;;;5065600;28;20108;-68
2022/01/24 03:39:41;;;;;;;25.25;11.73;;;8.10;99.90;;;;;;5057794;28;20446;-69
2022/01/24 03:42:07;;;;;;;23.90;11.38;;;8.10;99.90;;;;;;5058943;28;20056;-70
2022/01/24 03:44:33;;;;;;;25.17;11.50;;;8.00;99.90;;;;;;5069238;28;20046;-70
2022/01/24 03:52:09;;;;;;;27.60;13.32;;;8.10;99.90;;;;;;5058632;28;20064;-70
2022/01/24 03:54:35;;;;;;;25.83;13.15;;;8.10;99.90;;;;;;5068927;28;20071;-69
2022/01/24 03:57:02;;;;;;;26.40;12.27;;;8.20;99.90;;;;;;5055245;28;20100;-69
2022/01/24 03:59:30;;;;;;;27.42;13.23;;;8.20;99.90;;;;;;5060666;28;20096;-71
2022/01/24 04:01:58;;;;;;;27.15;13.82;;;8.10;99.90;;;;;;5057880;28;20066;-69
2022/01/24 04:04:23;;;;;;;26.42;12.25;;;8.20;99.90;;;;;;5053158;28;20033;-69
2022/01/24 04:06:49;;;;;;;29.10;12.45;;;8.10;99.90;;;;;;5068801;28;20051;-70
2022/01/24 04:09:15;;;;;;;24.83;11.52;;;8.10;99.90;;;;;;5059220;28;20056;-70
2022/01/24 04:11:41;;;;;;;23.88;11.43;;;8.00;99.90;;;;;;5062167;28;20455;-71
2022/01/24 04:14:25;;;;;;;26.63;12.18;;;8.10;99.90;;;;;;5061658;28;20075;-70
2022/01/24 04:22:20;;;;;;;25.10;11.45;;;8.20;99.90;;;;;;5068415;28;20202;-71
2022/01/24 04:24:47;;;;;;;24.60;11.52;;;8.10;99.90;;;;;;5055740;28;21551;-70
2022/01/24 04:27:14;;;;;;;27.50;11.45;;;8.10;99.90;;;;;;5065903;28;20017;-70
2022/01/24 04:29:40;;;;;;;27.15;12.30;;;8.10;99.90;;;;;;5034410;28;20450;-70
2022/01/24 04:32:06;;;;;;;25.70;11.77;;;8.20;99.90;;;;;;5052428;28;20104;-69
2022/01/24 04:34:32;;;;;;;28.23;11.95;;;8.10;99.90;;;;;;5052128;28;20037;-70
2022/01/24 04:36:57;;;;;;;26.55;12.55;;;8.20;99.90;;;;;;5052483;28;20028;-69
2022/01/24 04:39:23;;;;;;;29.92;13.82;;;8.20;99.90;;;;;;5071877;28;20111;-70
2022/01/24 04:41:53;;;;;;;26.52;12.43;;;8.20;99.90;;;;;;5072319;28;20382;-70
2022/01/24 04:54:42;;;;;;;27.10;12.98;;;8.20;99.90;;;;;;5052644;28;20044;-69
2022/01/24 04:57:10;;;;;;;26.08;12.20;;;8.20;99.90;;;;;;5055747;28;20025;-70
2022/01/24 04:59:37;;;;;;;26.73;12.70;;;8.30;99.90;;;;;;5047184;28;20374;-70
2022/01/24 05:02:03;;;;;;;26.45;12.20;;;8.30;99.90;;;;;;5071622;28;20029;-69
2022/01/24 05:04:29;;;;;;;31.15;13.68;;;8.30;99.90;;;;;;5051788;28;20080;-70
2022/01/24 05:06:55;;;;;;;32.58;14.48;;;8.30;99.90;;;;;;5054703;28;20037;-71
2022/01/24 05:09:21;;;;;;;30.38;13.38;;;8.30;99.90;;;;;;5055641;28;20093;-72
2022/01/24 05:25:09;;;;;;;32.58;15.18;;;8.20;99.90;;;;;;5055311;28;20443;-69
2022/01/24 05:27:35;;;;;;;32.00;15.63;;;8.10;99.90;;;;;;5055465;28;20116;-70
2022/01/24 05:30:00;;;;;;;36.47;16.17;;;8.10;99.90;;;;;;5055619;28;20099;-70
2022/01/24 05:32:26;;;;;;;34.30;16.63;;;8.10;99.90;;;;;;5055033;28;20021;-69
2022/01/24 05:34:51;;;;;;;34.85;15.85;;;8.20;99.90;;;;;;5055455;28;20033;-71
2022/01/24 05:37:17;;;;;;;34.55;15.73;;;8.20;99.90;;;;;;5055102;28;20448;-71
2022/01/24 05:39:42;;;;;;;36.17;16.70;;;8.20;99.90;;;;;;5060007;28;20044;-69
2022/01/24 05:42:08;;;;;;;30.30;14.55;;;8.30;99.90;;;;;;5075140;28;20028;-71
2022/01/24 05:44:34;;;;;;;31.80;16.02;;;8.30;99.90;;;;;;5074802;28;20033;-69
2022/01/24 05:46:59;;;;;;;31.55;14.15;;;8.30;99.90;;;;;;5058577;28;20029;-69
2022/01/24 05:49:25;;;;;;;33.95;15.38;;;8.30;99.90;;;;;;5054672;28;20144;-70
2022/01/24 05:51:50;;;;;;;30.23;14.45;;;8.30;99.90;;;;;;5045781;28;20021;-70
2022/01/24 05:54:16;;;;;;;35.53;15.75;;;8.30;99.90;;;;;;5056886;28;20072;-68
2022/01/24 05:56:42;;;;;;;30.20;15.32;;;8.30;99.90;;;;;;5068776;28;20036;-69
2022/01/24 05:59:08;;;;;;;34.75;16.05;;;8.30;99.90;;;;;;5037238;28;20039;-69
2022/01/24 06:01:33;;;;;;;35.97;17.65;;;8.30;99.90;;;;;;5054370;28;20033;-69
2022/01/24 06:03:59;;;;;;;35.67;16.05;;;8.30;99.90;;;;;;5071425;28;20127;-72
2022/01/24 06:06:25;;;;;;;34.47;16.98;;;8.30;99.90;;;;;;5074989;28;20082;-69
2022/01/24 06:08:50;;;;;;;36.35;16.02;;;8.30;99.90;;;;;;5074528;28;20115;-69
2022/01/24 06:11:17;;;;;;;41.05;17.92;;;8.20;99.90;;;;;;5074434;28;20090;-69
2022/01/24 06:13:45;;;;;;;37.05;16.10;;;8.20;99.90;;;;;;5064166;28;20041;-70
2022/01/24 06:16:11;;;;;;;38.35;17.80;;;8.20;99.90;;;;;;5061840;28;20017;-69
2022/01/24 06:18:36;;;;;;;38.63;17.60;;;8.10;99.90;;;;;;5062823;28;20489;-70
2022/01/24 06:21:02;;;;;;;39.63;20.52;;;8.10;99.90;;;;;;5063982;28;20032;-69
2022/01/24 06:23:27;;;;;;;38.63;17.83;;;8.10;99.90;;;;;;5074353;28;20024;-69
2022/01/24 06:25:53;;;;;;;37.60;17.98;;;8.10;99.90;;;;;;5067691;28;20033;-69
2022/01/24 06:28:19;;;;;;;38.55;17.45;;;8.10;99.90;;;;;;5036326;28;20082;-69
2022/01/24 06:30:44;;;;;;;38.75;18.33;;;8.10;99.90;;;;;;5048127;28;20040;-70
2022/01/24 06:33:10;;;;;;;37.40;18.10;;;8.20;99.90;;;;;;5042022;28;20481;-70
2022/01/24 06:35:36;;;;;;;39.05;19.05;;;8.20;99.90;;;;;;5060029;28;20025;-70
2022/01/24 06:38:03;;;;;;;40.20;17.63;;;8.20;99.90;;;;;;5070011;28;20039;-70
2022/01/24 06:40:28;;;;;;;38.67;18.35;;;8.20;99.90;;;;;;5069159;28;20044;-70
2022/01/24 06:42:54;;;;;;;40.58;18.52;;;8.20;99.90;;;;;;5073894;28;20037;-70
2022/01/24 06:45:20;;;;;;;37.33;17.63;;;8.20;99.90;;;;;;5074257;28;20059;-69
2022/01/24 06:47:45;;;;;;;37.88;17.80;;;8.20;99.90;;;;;;5073990;28;20025;-69
2022/01/24 06:50:11;;;;;;;51.60;27.23;;;8.30;99.90;;;;;;5074085;28;20028;-69
2022/01/24 06:52:37;;;;;;;37.80;17.90;;;8.30;99.90;;;;;;5058461;28;20159;-70
2022/01/24 06:55:04;;;;;;;38.20;18.23;;;8.20;99.90;;;;;;5054281;28;20027;-69
2022/01/24 06:57:29;;;;;;;39.05;18.40;;;8.20;99.90;;;;;;5053834;28;20028;-70
2022/01/24 06:59:56;;;;;;;41.97;19.63;;;8.20;99.90;;;;;;5053657;28;20518;-70
2022/01/24 07:02:21;;;;;;;36.13;17.50;;;8.20;99.90;;;;;;5053836;28;20132;-69
2022/01/24 07:04:47;;;;;;;37.85;17.58;;;8.20;99.90;;;;;;5056084;28;20112;-70
2022/01/24 07:07:14;;;;;;;35.97;16.75;;;8.20;99.90;;;;;;5065274;28;20370;-70
2022/01/24 07:09:41;;;;;;;37.00;17.30;;;8.30;99.90;;;;;;5061826;28;20020;-70
2022/01/24 07:12:07;;;;;;;36.30;17.23;;;8.30;99.90;;;;;;5062606;28;20026;-69
2022/01/24 07:14:33;;;;;;;36.72;18.33;;;8.30;99.90;;;;;;5059664;28;20060;-69
2022/01/24 07:19:30;;;;;;;36.63;17.75;;;8.20;99.90;;;;;;5061641;28;20490;-70
2022/01/24 07:21:57;;;;;;;36.92;17.27;;;8.30;99.90;;;;;;5062734;28;20436;-69
2022/01/24 07:24:27;;;;;;;36.17;17.15;;;8.30;99.90;;;;;;5057760;28;20090;-71
2022/01/24 07:26:52;;;;;;;39.10;18.48;;;8.20;99.90;;;;;;5060313;28;20040;-69
2022/01/24 07:29:19;;;;;;;39.15;19.10;;;8.30;99.90;;;;;;5058526;28;20028;-71
2022/01/24 07:31:46;;;;;;;38.58;17.90;;;8.20;99.90;;;;;;5063930;28;20142;-69
2022/01/24 07:34:13;;;;;;;39.80;17.50;;;8.20;99.90;;;;;;5054504;28;20124;-70
2022/01/24 07:36:39;;;;;;;41.10;19.48;;;8.20;99.90;;;;;;5055664;28;20021;-70
2022/01/24 07:39:05;;;;;;;40.17;19.02;;;8.20;99.90;;;;;;5063852;28;20032;-69
2022/01/24 07:41:33;;;;;;;38.85;16.95;;;8.20;99.90;;;;;;5055637;28;20032;-69
2022/01/24 07:43:59;;;;;;;40.67;20.27;;;8.10;99.90;;;;;;5071364;28;20107;-69
2022/01/24 07:46:25;;;;;;;37.92;18.55;;;8.20;99.90;;;;;;5057488;28;20099;-68
2022/01/24 07:48:51;;;;;;;41.08;19.77;;;8.20;99.90;;;;;;5061162;28;20128;-69
2022/01/24 07:51:16;;;;;;;37.80;18.50;;;8.20;99.90;;;;;;5061493;28;20355;-69
2022/01/24 07:53:43;;;;;;;38.67;18.73;;;8.20;99.90;;;;;;5056662;28;20041;-69
2022/01/24 07:56:11;;;;;;;38.53;19.15;;;8.20;99.90;;;;;;5053181;28;20025;-70
2022/01/24 07:58:37;;;;;;;37.15;18.73;;;8.10;99.90;;;;;;5034775;28;20021;-69
2022/01/24 08:01:03;;;;;;;37.63;17.92;;;8.10;99.90;;;;;;5057221;28;20032;-69
2022/01/24 08:03:29;;;;;;;40.08;18.63;;;8.10;99.90;;;;;;5066984;28;20021;-69
2022/01/24 08:05:55;;;;;;;38.30;18.45;;;8.10;99.90;;;;;;5048517;28;20033;-69
2022/01/24 08:08:21;;;;;;;38.50;18.38;;;8.10;99.90;;;;;;5051469;28;20059;-69
2022/01/24 08:10:47;;;;;;;40.10;18.30;;;8.10;99.90;;;;;;5052752;28;20032;-69
2022/01/24 08:13:13;;;;;;;41.95;19.05;;;8.10;99.90;;;;;;5052607;28;20048;-69
2022/01/24 08:15:39;;;;;;;42.50;18.48;;;8.00;99.90;;;;;;5051766;28;20025;-70
2022/01/24 08:18:05;;;;;;;39.53;19.55;;;8.00;99.90;;;;;;5052199;28;20017;-69
2022/01/24 08:20:32;;;;;;;37.72;18.67;;;8.00;99.90;;;;;;5051295;28;20036;-69
2022/01/24 08:22:58;;;;;;;36.38;17.80;;;8.00;99.90;;;;;;5052136;28;20040;-69
2022/01/24 08:25:24;;;;;;;37.42;17.70;;;8.00;99.90;;;;;;5053573;28;20378;-69
2022/01/24 08:27:49;;;;;;;39.63;18.58;;;8.00;99.90;;;;;;5072054;28;20025;-70
2022/01/24 08:30:19;;;;;;;41.53;19.60;;;8.10;99.90;;;;;;5072539;28;20029;-69
2022/01/24 08:32:46;;;;;;;39.03;18.65;;;8.10;99.90;;;;;;5072430;28;20070;-70
2022/01/24 08:35:13;;;;;;;39.15;18.40;;;8.10;99.90;;;;;;5071801;28;20075;-70
2022/01/24 08:37:39;;;;;;;37.05;17.60;;;8.10;99.90;;;;;;5071319;28;20016;-69
2022/01/24 08:40:07;;;;;;;39.97;18.98;;;8.20;99.90;;;;;;5071151;28;20327;-70
2022/01/24 08:47:31;;;;;;;41.60;19.42;;;8.20;99.90;;;;;;5056520;28;20422;-70
2022/01/24 08:49:58;;;;;;;37.20;18.05;;;8.20;99.90;;;;;;5038003;28;20471;-70
2022/01/24 08:52:25;;;;;;;38.75;20.23;;;8.10;99.90;;;;;;5056097;28;20053;-69
2022/01/24 08:54:51;;;;;;;40.28;17.98;;;8.00;99.90;;;;;;5055996;28;20037;-70
2022/01/24 08:57:21;;;;;;;41.88;19.85;;;8.00;99.90;;;;;;5056091;28;20056;-70
2022/01/24 08:59:48;;;;;;;43.13;19.48;;;8.00;99.90;;;;;;5055860;28;20021;-71
2022/01/24 09:02:13;;;;;;;37.67;18.45;;;8.00;99.90;;;;;;5055838;28;20052;-70
2022/01/24 09:04:39;;;;;;;41.95;18.40;;;8.10;99.90;;;;;;5055727;28;20092;-70
2022/01/24 09:07:06;;;;;;;42.20;18.60;;;8.10;99.90;;;;;;5055585;28;20029;-69
2022/01/24 09:09:34;;;;;;;41.60;19.25;;;8.10;99.90;;;;;;5037919;28;20056;-69
2022/01/24 09:12:01;;;;;;;39.70;18.65;;;8.20;99.90;;;;;;5056101;28;20036;-70
2022/01/24 09:14:27;;;;;;;43.20;19.20;;;8.20;99.90;;;;;;5055831;28;20105;-70
2022/01/24 09:16:52;;;;;;;42.08;20.45;;;8.20;99.90;;;;;;5064970;28;20033;-69
2022/01/24 09:19:18;;;;;;;43.50;21.83;;;8.20;99.90;;;;;;5064055;28;20024;-69
2022/01/24 09:21:44;;;;;;;41.20;19.95;;;8.20;99.90;;;;;;5075214;28;20028;-70
2022/01/24 09:24:09;;;;;;;46.03;22.55;;;8.20;99.90;;;;;;5075334;28;20421;-70
2022/01/24 09:26:35;;;;;;;41.13;20.30;;;8.30;99.90;;;;;;5075548;28;20123;-69
2022/01/24 09:29:01;;;;;;;44.20;22.42;;;8.30;99.90;;;;;;5075545;28;20027;-69
2022/01/24 09:31:26;;;;;;;43.65;21.60;;;8.30;99.90;;;;;;5075601;28;20028;-70
2022/01/24 09:33:53;;;;;;;44.78;22.65;;;8.30;99.90;;;;;;5065690;28;20037;-70
2022/01/24 09:36:20;;;;;;;46.70;21.48;;;8.40;99.90;;;;;;5066841;28;20029;-71
2022/01/24 09:38:45;;;;;;;45.00;22.73;;;8.40;99.90;;;;;;5055058;28;20028;-69
2022/01/24 09:41:15;;;;;;;48.33;22.48;;;8.40;99.90;;;;;;5055548;28;20386;-71
2022/01/24 09:43:43;;;;;;;44.38;22.67;;;8.40;99.90;;;;;;5055267;28;20083;-70
2022/01/24 09:46:10;;;;;;;46.15;22.13;;;8.40;99.90;;;;;;5055473;28;20418;-70
2022/01/24 09:48:38;;;;;;;40.22;20.80;;;8.40;99.90;;;;;;5055127;28;20546;-70
2022/01/24 09:51:04;;;;;;;45.75;22.42;;;8.40;99.90;;;;;;5055411;28;20447;-69
2022/01/24 09:53:30;;;;;;;44.08;21.92;;;8.40;99.90;;;;;;5054702;28;20095;-70
2022/01/24 09:55:59;;;;;;;45.28;22.48;;;8.40;99.90;;;;;;5036917;28;20454;-70
2022/01/24 09:58:25;;;;;;;47.15;22.90;;;8.40;99.90;;;;;;5060782;28;20107;-69
2022/01/24 10:00:51;;;;;;;44.95;22.70;;;8.40;99.90;;;;;;5056881;28;20119;-69
2022/01/24 10:03:16;;;;;;;44.15;22.98;;;8.50;99.90;;;;;;5054922;28;20100;-70
2022/01/24 10:05:50;;;;;;;49.58;23.60;;;8.50;99.90;;;;;;5054850;28;20374;-69
2022/01/24 10:08:17;;;;;;;48.88;24.67;;;8.60;99.90;;;;;;5054735;28;20067;-69
2022/01/24 10:10:50;;;;;;;52.83;26.35;;;8.60;99.90;;;;;;5054905;28;20093;-69
2022/01/24 10:19:20;;;;;;;53.90;27.27;;;8.50;99.90;;;;;;5054740;28;20061;-70
2022/01/24 10:21:53;;;;;;;54.97;27.73;;;8.50;99.90;;;;;;5054509;28;20501;-70
2022/01/24 10:24:31;;;;;;;54.55;27.13;;;8.40;99.90;;;;;;5054599;28;20025;-70
2022/01/24 10:27:16;;;;;;;54.05;27.35;;;8.40;99.90;;;;;;5036270;28;20025;-69
2022/01/24 10:29:46;;;;;;;54.78;26.90;;;8.40;99.90;;;;;;5054201;28;20112;-69
2022/01/24 10:32:29;;;;;;;59.08;26.67;;;8.50;99.90;;;;;;5054129;28;20025;-71
2022/01/24 10:34:55;;;;;;;53.33;26.40;;;8.50;99.90;;;;;;5054265;28;20094;-69
2022/01/24 10:37:22;;;;;;;54.50;26.85;;;8.50;99.90;;;;;;5053874;28;20033;-69
2022/01/24 10:39:59;;;;;;;50.50;26.80;;;8.50;99.90;;;;;;5054178;28;20114;-68
2022/01/24 10:44:54;;;;;;;46.63;23.73;;;8.50;99.90;;;;;;5054215;28;20025;-70
2022/01/24 10:47:30;;;;;;;51.67;25.40;;;8.40;99.90;;;;;;5053701;28;20390;-70
2022/01/24 10:49:57;;;;;;;54.25;27.50;;;8.40;99.90;;;;;;5054145;28;20049;-72
2022/01/24 10:52:24;;;;;;;55.40;27.42;;;8.40;99.90;;;;;;5035974;28;20017;-70
2022/01/24 10:54:53;;;;;;;54.92;27.58;;;8.40;99.90;;;;;;5053846;28;20037;-71
2022/01/24 10:57:26;;;;;;;52.85;26.50;;;8.50;99.90;;;;;;5054127;28;20025;-70
2022/01/24 11:00:05;;;;;;;55.20;27.27;;;8.50;99.90;;;;;;5053986;28;20403;-69
2022/01/24 11:02:36;;;;;;;50.72;26.45;;;8.60;99.90;;;;;;5051148;28;20087;-70
2022/01/24 11:05:15;;;;;;;51.55;26.20;;;8.60;99.90;;;;;;5052428;28;20454;-68
2022/01/24 11:08:11;;;;;;;52.25;26.45;;;8.60;99.90;;;;;;5053523;28;20744;-70
2022/01/24 11:10:43;;;;;;;49.72;25.00;;;8.60;99.90;;;;;;5051647;28;20045;-70
2022/01/24 11:13:10;;;;;;;52.28;25.85;;;8.60;99.90;;;;;;5053894;28;20039;-69
2022/01/24 11:15:39;;;;;;;58.28;27.13;;;8.60;99.90;;;;;;5053426;28;20032;-68
2022/01/24 11:18:06;;;;;;;50.95;26.08;;;8.70;99.90;;;;;;5053437;28;20017;-69
2022/01/24 11:20:34;;;;;;;52.65;27.58;;;8.60;99.90;;;;;;5052784;28;20111;-69
2022/01/24 11:23:06;;;;;;;51.75;27.23;;;8.70;99.90;;;;;;5035129;28;20040;-70
2022/01/24 11:25:39;;;;;;;50.35;27.13;;;8.70;99.90;;;;;;5053695;28;20052;-70
2022/01/24 11:28:06;;;;;;;54.05;26.67;;;8.70;99.90;;;;;;5053330;28;20079;-69
2022/01/24 11:30:50;;;;;;;47.65;25.42;;;8.80;99.90;;;;;;5053087;28;20439;-70
2022/01/24 11:33:31;;;;;;;50.33;26.10;;;8.90;99.90;;;;;;5053146;28;20474;-69
2022/01/24 11:36:01;;;;;;;49.40;25.85;;;8.90;99.90;;;;;;5052957;28;20025;-69
2022/01/24 11:38:37;;;;;;;47.30;24.50;;;8.90;99.90;;;;;;5053217;28;20047;-70
2022/01/24 11:41:20;;;;;;;49.30;25.27;;;9.00;99.90;;;;;;5053077;28;20047;-69
2022/01/24 11:43:50;;;;;;;51.90;26.30;;;9.00;99.90;;;;;;5052959;28;20029;-69
2022/01/24 11:46:40;;;;;;;51.35;26.92;;;9.00;99.90;;;;;;5052895;28;20061;-69
2022/01/24 11:49:26;;;;;;;51.08;27.10;;;9.10;99.90;;;;;;5052507;28;20041;-70
2022/01/24 11:52:14;;;;;;;44.50;23.02;;;9.00;99.90;;;;;;5052966;28;20025;-70
2022/01/24 11:55:15;;;;;;;50.80;26.00;;;8.90;99.90;;;;;;5052991;28;20036;-69
2022/01/24 11:57:42;;;;;;;48.67;23.33;;;8.90;99.90;;;;;;5052298;28;20178;-70
2022/01/24 12:00:07;;;;;;;46.50;24.20;;;8.90;99.90;;;;;;5053038;28;20078;-69
2022/01/24 12:02:46;;;;;;;49.25;25.27;;;9.00;99.90;;;;;;5052871;28;20017;-70
2022/01/24 12:05:15;;;;;;;50.33;25.38;;;9.00;99.90;;;;;;5049108;28;20149;-71
2022/01/24 12:07:51;;;;;;;47.53;25.40;;;9.10;99.90;;;;;;5052025;28;20032;-70
2022/01/24 12:10:29;;;;;;;49.08;23.98;;;9.20;99.90;;;;;;5052463;28;20106;-71
2022/01/24 12:13:04;;;;;;;47.67;24.48;;;9.30;99.90;;;;;;5052221;28;20474;-70
2022/01/24 12:15:38;;;;;;;48.83;25.83;;;9.40;99.90;;;;;;5052292;28;20105;-70
2022/01/24 12:18:33;;;;;;;49.55;25.02;;;9.50;99.90;;;;;;5052478;28;20478;-70
2022/01/24 12:21:04;;;;;;;49.72;25.98;;;9.50;99.90;;;;;;5035370;28;20037;-70
2022/01/24 12:23:51;;;;;;;52.67;27.25;;;9.50;99.90;;;;;;5051944;28;20494;-69
2022/01/24 12:26:17;;;;;;;51.47;26.58;;;9.60;99.90;;;;;;5054159;28;20061;-69
2022/01/24 12:28:43;;;;;;;50.70;26.27;;;9.60;99.90;;;;;;5061233;28;20056;-70
2022/01/24 12:31:15;;;;;;;52.95;26.20;;;9.70;99.90;;;;;;5072603;28;20032;-69
2022/01/24 12:33:50;;;;;;;51.28;27.63;;;9.70;99.90;;;;;;5057649;28;20087;-69
2022/01/24 12:36:16;;;;;;;48.85;25.30;;;9.70;99.90;;;;;;5052276;28;20245;-69
2022/01/24 12:38:44;;;;;;;48.45;26.23;;;9.60;99.90;;;;;;5052217;28;20029;-69
2022/01/24 12:41:23;;;;;;;50.28;28.15;;;9.60;99.90;;;;;;5063015;28;20025;-70
2022/01/24 12:46:27;;;;;;;50.40;26.33;;;9.60;99.90;;;;;;5051441;28;20029;-69
2022/01/24 12:49:00;;;;;;;51.33;26.00;;;9.60;99.90;;;;;;5052026;28;20445;-68
2022/01/24 12:51:28;;;;;;;49.83;25.65;;;9.70;99.90;;;;;;5034082;28;20106;-69
2022/01/24 12:53:55;;;;;;;50.72;26.42;;;9.70;99.90;;;;;;5051897;28;20128;-70
2022/01/24 12:56:25;;;;;;;53.85;27.08;;;9.70;99.90;;;;;;5034373;28;20117;-70
2022/01/24 12:58:52;;;;;;;52.63;27.23;;;9.70;99.90;;;;;;5063426;28;20119;-70
2022/01/24 13:01:20;;;;;;;48.60;24.40;;;9.80;99.90;;;;;;5062531;28;20363;-69
2022/01/24 13:03:49;;;;;;;45.88;24.52;;;9.80;99.90;;;;;;5052014;28;20029;-70
2022/01/24 13:06:16;;;;;;;48.92;26.60;;;9.80;99.90;;;;;;5052854;28;20052;-69
2022/01/24 13:08:57;;;;;;;49.25;25.95;;;9.80;99.90;;;;;;5064171;28;20025;-69
2022/01/24 13:11:23;;;;;;;48.45;25.15;;;9.80;99.90;;;;;;5067164;28;20024;-69
2022/01/24 13:14:13;;;;;;;48.95;26.40;;;9.70;99.90;;;;;;5051139;28;20040;-71
2022/01/24 13:22:40;;;;;;;53.58;27.63;;;9.60;99.90;;;;;;5072153;28;20042;-70
2022/01/24 13:25:23;;;;;;;52.70;25.95;;;9.60;99.90;;;;;;5071686;28;20470;-69
2022/01/24 13:27:58;;;;;;;49.75;27.23;;;9.60;99.90;;;;;;5066136;28;20434;-69
2022/01/24 13:30:28;;;;;;;51.65;27.17;;;9.60;99.90;;;;;;5055996;28;20029;-71
2022/01/24 13:32:59;;;;;;;51.92;27.83;;;9.60;99.90;;;;;;5055318;28;20028;-68
2022/01/24 13:35:33;;;;;;;52.95;27.55;;;9.60;99.90;;;;;;5055589;28;20485;-72
2022/01/24 13:38:18;;;;;;;55.42;28.77;;;9.60;99.90;;;;;;5037970;28;20091;-69
2022/01/24 13:43:40;;;;;;;51.05;26.40;;;9.40;99.90;;;;;;5055117;28;20557;-71
2022/01/24 13:46:22;;;;;;;57.65;28.33;;;9.50;99.90;;;;;;5064980;28;20106;-71
2022/01/24 13:48:49;;;;;;;52.28;26.25;;;9.50;99.90;;;;;;5074921;28;20085;-69
2022/01/24 13:51:39;;;;;;;50.60;26.65;;;9.50;99.90;;;;;;5074964;28;20037;-69
2022/01/24 13:54:26;;;;;;;54.65;27.05;;;9.50;99.90;;;;;;5054066;28;20927;-71
2022/01/24 13:56:59;;;;;;;50.08;26.13;;;9.40;99.90;;;;;;5070616;28;20024;-71
2022/01/24 13:59:31;;;;;;;50.20;26.38;;;9.50;99.90;;;;;;5075080;28;20475;-71
2022/01/24 14:02:01;;;;;;;59.67;28.83;;;9.50;99.90;;;;;;5074061;28;20465;-71
2022/01/24 14:04:40;;;;;;;52.75;26.75;;;9.50;99.90;;;;;;5056366;28;20026;-71
2022/01/24 14:07:10;;;;;;;53.80;27.23;;;9.50;99.90;;;;;;5061905;28;20036;-69
2022/01/24 14:09:59;;;;;;;50.10;25.92;;;9.50;99.90;;;;;;5054995;28;20044;-70
2022/01/24 14:12:29;;;;;;;52.35;26.52;;;9.50;99.90;;;;;;5054941;28;20053;-70
2022/01/24 14:15:08;;;;;;;51.15;26.50;;;9.50;99.90;;;;;;5072362;28;20410;-70
2022/01/24 14:17:45;;;;;;;53.15;26.80;;;9.40;99.90;;;;;;5056656;28;20033;-70
2022/01/24 14:20:18;;;;;;;50.13;26.13;;;9.40;99.90;;;;;;5063667;28;20025;-70
2022/01/24 14:22:48;;;;;;;51.60;27.60;;;9.40;99.90;;;;;;5047341;28;20090;-68
2022/01/24 14:25:25;;;;;;;53.58;25.60;;;9.30;99.90;;;;;;5053853;28;20028;-70
2022/01/24 14:27:53;;;;;;;52.97;26.65;;;9.30;99.90;;;;;;5057583;28;20112;-69
2022/01/24 14:30:32;;;;;;;55.03;26.95;;;9.20;99.90;;;;;;5051478;28;20039;-72
2022/01/24 14:33:12;;;;;;;52.45;26.55;;;9.20;99.90;;;;;;5070437;28;20021;-70
2022/01/24 14:35:50;;;;;;;52.58;26.33;;;9.10;99.90;;;;;;5053948;28;20378;-69
2022/01/24 14:38:40;;;;;;;55.28;27.48;;;9.10;99.90;;;;;;5053782;28;20053;-71
2022/01/24 14:41:07;;;;;;;56.08;26.65;;;9.00;99.90;;;;;;5046725;28;20045;-72
2022/01/24 14:46:21;;;;;;;52.47;29.00;;;9.00;99.90;;;;;;5053737;28;20027;-70
2022/01/24 14:48:56;;;;;;;57.42;27.40;;;8.90;99.90;;;;;;5045951;28;20059;-69
2022/01/24 14:51:25;;;;;;;52.72;27.25;;;8.90;99.90;;;;;;5073459;28;20382;-72
2022/01/24 14:53:53;;;;;;;53.92;26.95;;;8.90;99.90;;;;;;5071956;28;20394;-71
2022/01/24 14:56:19;;;;;;;58.17;27.85;;;8.90;99.90;;;;;;5053831;28;20075;-71
2022/01/24 14:58:45;;;;;;;54.97;27.48;;;8.90;99.90;;;;;;5062960;28;20024;-70